sensor_id;sensor_type;location;lat;lon;timestamp;temperature;humidity
49242;DHT22;35079;52.704;13.814;2023-05-07T00:01:33;8.50;99.90
49242;DHT22;35079;52.704;13.814;2023-05-07T00:03:59;8.40;99.90
49242;DHT22;35079;52.704;13.814;2023-05-07T00:06:24;8.60;99.90
49242;DHT22;35079;52.704;13.814;2023-05-07T00:08:53;8.60;99.90
49242;DHT22;35079;52.704;13.814;2023-05-07T00:11:18;8.60;99.90
49242;DHT22;35079;52.704;13.814;2023-05-07T00:13:44;8.60;99.90
49242;DHT22;35079;52.704;13.814;2023-05-07T00:16:09;8.60;99.90
49242;DHT22;35079;52.704;13.814;2023-05-07T00:18:35;8.40;99.90
49242;DHT22;35079;52.704;13.814;2023-05-07T00:21:00;8.40;99.90
49242;DHT22;35079;52.704;13.814;2023-05-07T00:23:26;8.30;99.90
49242;DHT22;35079;52.704;13.814;2023-05-07T00:25:52;8.50;99.90
49242;DHT22;35079;52.704;13.814;2023-05-07T00:28:17;8.40;99.90
49242;DHT22;35079;52.704;13.814;2023-05-07T00:30:43;8.50;99.90
49242;DHT22;35079;52.704;13.814;2023-05-07T00:33:08;8.50;99.90
49242;DHT22;35079;52.704;13.814;2023-05-07T00:35:34;8.50;99.90
49242;DHT22;35079;52.704;13.814;2023-05-07T00:38:00;8.50;99.90
49242;DHT22;35079;52.704;13.814;2023-05-07T00:40:25;8.50;99.90
49242;DHT22;35079;52.704;13.814;2023-05-07T00:42:51;8.40;99.90
49242;DHT22;35079;52.704;13.814;2023-05-07T00:45:21;8.50;99.90
49242;DHT22;35079;52.704;13.814;2023-05-07T00:47:48;8.50;99.90
49242;DHT22;35079;52.704;13.814;2023-05-07T00:50:14;8.50;99.90
49242;DHT22;35079;52.704;13.814;2023-05-07T00:52:39;8.50;99.90
49242;DHT22;35079;52.704;13.814;2023-05-07T00:55:07;8.60;99.90
49242;DHT22;35079;52.704;13.814;2023-05-07T00:57:36;8.50;99.90
49242;DHT22;35079;52.704;13.814;2023-05-07T01:00:04;8.50;99.90
49242;DHT22;35079;52.704;13.814;2023-05-07T01:02:29;8.50;99.90
49242;DHT22;35079;52.704;13.814;2023-05-07T01:04:56;8.60;99.90
49242;DHT22;35079;52.704;13.814;2023-05-07T01:07:22;8.40;99.90
49242;DHT22;35079;52.704;13.814;2023-05-07T01:09:48;8.40;99.90
49242;DHT22;35079;52.704;13.814;2023-05-07T01:12:15;8.40;99.90
49242;DHT22;35079;52.704;13.814;2023-05-07T01:14:41;8.40;99.90
49242;DHT22;35079;52.704;13.814;2023-05-07T01:17:07;8.40;99.90
49242;DHT22;35079;52.704;13.814;2023-05-07T01:19:33;8.40;99.90
49242;DHT22;35079;52.704;13.814;2023-05-07T01:22:07;8.40;99.90
49242;DHT22;35079;52.704;13.814;2023-05-07T01:24:33;8.40;99.90
49242;DHT22;35079;52.704;13.814;2023-05-07T01:27:00;8.50;99.90
49242;DHT22;35079;52.704;13.814;2023-05-07T01:29:27;8.40;99.90
49242;DHT22;35079;52.704;13.814;2023-05-07T01:31:52;8.30;99.90
49242;DHT22;35079;52.704;13.814;2023-05-07T01:34:19;8.40;99.90
49242;DHT22;35079;52.704;13.814;2023-05-07T01:36:47;8.30;99.90
49242;DHT22;35079;52.704;13.814;2023-05-07T01:39:13;8.40;99.90
49242;DHT22;35079;52.704;13.814;2023-05-07T01:41:40;8.40;99.90
49242;DHT22;35079;52.704;13.814;2023-05-07T01:44:05;8.40;99.90
49242;DHT22;35079;52.704;13.814;2023-05-07T01:46:31;8.30;99.90
49242;DHT22;35079;52.704;13.814;2023-05-07T01:48:58;8.30;99.90
49242;DHT22;35079;52.704;13.814;2023-05-07T01:51:23;8.40;99.90
49242;DHT22;35079;52.704;13.814;2023-05-07T01:53:49;8.50;99.90
49242;DHT22;35079;52.704;13.814;2023-05-07T01:56:17;8.40;99.90
49242;DHT22;35079;52.704;13.814;2023-05-07T01:58:44;8.50;99.90
49242;DHT22;35079;52.704;13.814;2023-05-07T02:01:12;8.40;99.90
49242;DHT22;35079;52.704;13.814;2023-05-07T02:03:38;8.30;99.90
49242;DHT22;35079;52.704;13.814;2023-05-07T02:06:04;8.30;99.90
49242;DHT22;35079;52.704;13.814;2023-05-07T02:08:29;8.20;99.90
49242;DHT22;35079;52.704;13.814;2023-05-07T02:10:55;8.30;99.90
49242;DHT22;35079;52.704;13.814;2023-05-07T02:13:21;8.20;99.90
49242;DHT22;35079;52.704;13.814;2023-05-07T02:15:47;8.30;99.90
49242;DHT22;35079;52.704;13.814;2023-05-07T02:18:16;8.40;99.90
49242;DHT22;35079;52.704;13.814;2023-05-07T02:20:42;8.30;99.90
49242;DHT22;35079;52.704;13.814;2023-05-07T02:23:07;8.30;99.90
49242;DHT22;35079;52.704;13.814;2023-05-07T02:25:33;8.40;99.90
49242;DHT22;35079;52.704;13.814;2023-05-07T02:27:59;8.20;99.90
49242;DHT22;35079;52.704;13.814;2023-05-07T02:30:25;8.30;99.90
49242;DHT22;35079;52.704;13.814;2023-05-07T02:32:51;8.20;99.90
49242;DHT22;35079;52.704;13.814;2023-05-07T02:35:17;8.30;99.90
49242;DHT22;35079;52.704;13.814;2023-05-07T02:37:42;8.20;99.90
49242;DHT22;35079;52.704;13.814;2023-05-07T02:40:09;8.20;99.90
49242;DHT22;35079;52.704;13.814;2023-05-07T02:42:34;8.30;99.90
49242;DHT22;35079;52.704;13.814;2023-05-07T02:45:00;8.20;99.90
49242;DHT22;35079;52.704;13.814;2023-05-07T02:47:26;8.20;99.90
49242;DHT22;35079;52.704;13.814;2023-05-07T02:49:55;8.20;99.90
49242;DHT22;35079;52.704;13.814;2023-05-07T02:52:21;8.20;99.90
49242;DHT22;35079;52.704;13.814;2023-05-07T02:54:46;8.20;99.90
49242;DHT22;35079;52.704;13.814;2023-05-07T02:57:12;8.20;99.90
49242;DHT22;35079;52.704;13.814;2023-05-07T02:59:38;8.20;99.90
49242;DHT22;35079;52.704;13.814;2023-05-07T03:02:03;8.20;99.90
49242;DHT22;35079;52.704;13.814;2023-05-07T03:04:29;8.10;99.90
49242;DHT22;35079;52.704;13.814;2023-05-07T03:06:55;8.20;99.90
49242;DHT22;35079;52.704;13.814;2023-05-07T03:09:20;8.10;99.90
49242;DHT22;35079;52.704;13.814;2023-05-07T03:11:46;8.10;99.90
49242;DHT22;35079;52.704;13.814;2023-05-07T03:14:12;8.20;99.90
49242;DHT22;35079;52.704;13.814;2023-05-07T03:16:38;8.30;99.90
49242;DHT22;35079;52.704;13.814;2023-05-07T03:19:03;8.30;99.90
49242;DHT22;35079;52.704;13.814;2023-05-07T03:21:29;8.10;99.90
49242;DHT22;35079;52.704;13.814;2023-05-07T03:23:56;8.10;99.90
49242;DHT22;35079;52.704;13.814;2023-05-07T03:26:22;8.20;99.90
49242;DHT22;35079;52.704;13.814;2023-05-07T03:28:47;8.20;99.90
49242;DHT22;35079;52.704;13.814;2023-05-07T03:31:13;8.20;99.90
49242;DHT22;35079;52.704;13.814;2023-05-07T03:33:55;8.20;99.90
49242;DHT22;35079;52.704;13.814;2023-05-07T03:36:21;8.20;99.90
49242;DHT22;35079;52.704;13.814;2023-05-07T03:38:48;8.10;99.90
49242;DHT22;35079;52.704;13.814;2023-05-07T03:41:14;8.00;99.90
49242;DHT22;35079;52.704;13.814;2023-05-07T03:43:39;8.10;99.90
49242;DHT22;35079;52.704;13.814;2023-05-07T03:46:05;8.10;99.90
49242;DHT22;35079;52.704;13.814;2023-05-07T03:48:31;8.20;99.90
49242;DHT22;35079;52.704;13.814;2023-05-07T03:50:57;8.10;99.90
49242;DHT22;35079;52.704;13.814;2023-05-07T03:53:23;8.00;99.90
49242;DHT22;35079;52.704;13.814;2023-05-07T03:55:48;8.00;99.90
49242;DHT22;35079;52.704;13.814;2023-05-07T03:58:15;8.10;99.90
49242;DHT22;35079;52.704;13.814;2023-05-07T04:00:41;8.10;99.90
49242;DHT22;35079;52.704;13.814;2023-05-07T04:03:07;8.20;99.90
49242;DHT22;35079;52.704;13.814;2023-05-07T04:05:33;8.00;99.90
49242;DHT22;35079;52.704;13.814;2023-05-07T04:07:59;8.20;99.90
49242;DHT22;35079;52.704;13.814;2023-05-07T04:10:24;8.10;99.90
49242;DHT22;35079;52.704;13.814;2023-05-07T04:12:50;8.10;99.90
49242;DHT22;35079;52.704;13.814;2023-05-07T04:15:16;8.20;99.90
49242;DHT22;35079;52.704;13.814;2023-05-07T04:17:41;8.20;99.90
49242;DHT22;35079;52.704;13.814;2023-05-07T04:20:13;8.20;99.90
49242;DHT22;35079;52.704;13.814;2023-05-07T04:22:39;8.20;99.90
49242;DHT22;35079;52.704;13.814;2023-05-07T04:25:05;8.30;99.90
49242;DHT22;35079;52.704;13.814;2023-05-07T04:27:31;8.10;99.90
49242;DHT22;35079;52.704;13.814;2023-05-07T04:29:57;8.20;99.90
49242;DHT22;35079;52.704;13.814;2023-05-07T04:32:23;8.10;99.90
49242;DHT22;35079;52.704;13.814;2023-05-07T04:34:50;8.20;99.90
49242;DHT22;35079;52.704;13.814;2023-05-07T04:37:16;8.20;99.90
49242;DHT22;35079;52.704;13.814;2023-05-07T04:39:42;8.30;99.90
49242;DHT22;35079;52.704;13.814;2023-05-07T04:42:08;8.30;99.90
49242;DHT22;35079;52.704;13.814;2023-05-07T04:44:34;8.20;99.90
49242;DHT22;35079;52.704;13.814;2023-05-07T04:47:00;8.30;99.90
49242;DHT22;35079;52.704;13.814;2023-05-07T04:49:26;8.20;99.90
49242;DHT22;35079;52.704;13.814;2023-05-07T04:51:52;8.20;99.90
49242;DHT22;35079;52.704;13.814;2023-05-07T04:54:17;8.10;99.90
49242;DHT22;35079;52.704;13.814;2023-05-07T04:56:43;8.10;99.90
49242;DHT22;35079;52.704;13.814;2023-05-07T04:59:08;8.30;99.90
49242;DHT22;35079;52.704;13.814;2023-05-07T05:01:34;8.40;99.90
49242;DHT22;35079;52.704;13.814;2023-05-07T05:04:00;8.50;99.90
49242;DHT22;35079;52.704;13.814;2023-05-07T05:06:25;8.20;99.90
49242;DHT22;35079;52.704;13.814;2023-05-07T05:08:51;8.30;99.90
49242;DHT22;35079;52.704;13.814;2023-05-07T05:11:17;8.40;99.90
49242;DHT22;35079;52.704;13.814;2023-05-07T05:13:42;8.50;99.90
49242;DHT22;35079;52.704;13.814;2023-05-07T05:16:08;8.60;99.90
49242;DHT22;35079;52.704;13.814;2023-05-07T05:18:34;8.60;99.90
49242;DHT22;35079;52.704;13.814;2023-05-07T05:21:00;8.50;99.90
49242;DHT22;35079;52.704;13.814;2023-05-07T05:23:26;8.60;99.90
49242;DHT22;35079;52.704;13.814;2023-05-07T05:25:56;8.70;99.90
49242;DHT22;35079;52.704;13.814;2023-05-07T05:28:23;9.00;99.90
49242;DHT22;35079;52.704;13.814;2023-05-07T05:30:49;9.20;99.90
49242;DHT22;35079;52.704;13.814;2023-05-07T05:33:15;9.10;99.90
49242;DHT22;35079;52.704;13.814;2023-05-07T05:35:41;9.30;99.90
49242;DHT22;35079;52.704;13.814;2023-05-07T05:38:07;9.30;99.90
49242;DHT22;35079;52.704;13.814;2023-05-07T05:40:33;9.30;99.90
49242;DHT22;35079;52.704;13.814;2023-05-07T05:42:59;9.20;99.90
49242;DHT22;35079;52.704;13.814;2023-05-07T05:45:25;9.20;99.90
49242;DHT22;35079;52.704;13.814;2023-05-07T05:47:50;9.20;99.90
49242;DHT22;35079;52.704;13.814;2023-05-07T05:50:16;9.30;99.90
49242;DHT22;35079;52.704;13.814;2023-05-07T05:52:42;9.20;99.90
49242;DHT22;35079;52.704;13.814;2023-05-07T05:55:08;9.30;99.90
49242;DHT22;35079;52.704;13.814;2023-05-07T05:57:34;9.20;99.90
49242;DHT22;35079;52.704;13.814;2023-05-07T06:00:01;9.20;99.90
49242;DHT22;35079;52.704;13.814;2023-05-07T06:02:27;9.40;99.90
49242;DHT22;35079;52.704;13.814;2023-05-07T06:04:53;9.40;99.90
49242;DHT22;35079;52.704;13.814;2023-05-07T06:07:19;9.40;99.90
49242;DHT22;35079;52.704;13.814;2023-05-07T06:09:44;9.70;99.90
49242;DHT22;35079;52.704;13.814;2023-05-07T06:12:11;9.80;99.90
49242;DHT22;35079;52.704;13.814;2023-05-07T06:14:37;9.80;99.90
49242;DHT22;35079;52.704;13.814;2023-05-07T06:17:03;9.90;99.90
49242;DHT22;35079;52.704;13.814;2023-05-07T06:19:28;10.20;99.90
49242;DHT22;35079;52.704;13.814;2023-05-07T06:21:54;10.20;99.90
49242;DHT22;35079;52.704;13.814;2023-05-07T06:24:22;10.40;99.90
49242;DHT22;35079;52.704;13.814;2023-05-07T06:26:47;10.50;99.90
49242;DHT22;35079;52.704;13.814;2023-05-07T06:29:13;10.50;99.90
49242;DHT22;35079;52.704;13.814;2023-05-07T06:31:39;10.20;99.90
49242;DHT22;35079;52.704;13.814;2023-05-07T06:34:04;10.00;99.90
49242;DHT22;35079;52.704;13.814;2023-05-07T06:36:30;10.30;99.90
49242;DHT22;35079;52.704;13.814;2023-05-07T06:38:56;10.40;99.90
49242;DHT22;35079;52.704;13.814;2023-05-07T06:41:21;10.50;99.90
49242;DHT22;35079;52.704;13.814;2023-05-07T06:43:47;10.70;99.90
49242;DHT22;35079;52.704;13.814;2023-05-07T06:46:13;10.80;99.90
49242;DHT22;35079;52.704;13.814;2023-05-07T06:48:38;10.70;99.90
49242;DHT22;35079;52.704;13.814;2023-05-07T06:51:04;11.00;99.90
49242;DHT22;35079;52.704;13.814;2023-05-07T06:53:30;11.10;99.90
49242;DHT22;35079;52.704;13.814;2023-05-07T06:55:56;11.40;99.90
49242;DHT22;35079;52.704;13.814;2023-05-07T06:58:22;11.50;99.90
49242;DHT22;35079;52.704;13.814;2023-05-07T07:00:47;11.70;99.90
49242;DHT22;35079;52.704;13.814;2023-05-07T07:03:13;11.50;99.90
49242;DHT22;35079;52.704;13.814;2023-05-07T07:05:43;11.50;99.90
49242;DHT22;35079;52.704;13.814;2023-05-07T07:08:09;11.80;99.90
49242;DHT22;35079;52.704;13.814;2023-05-07T07:10:35;12.00;99.90
49242;DHT22;35079;52.704;13.814;2023-05-07T07:13:00;12.20;99.90
49242;DHT22;35079;52.704;13.814;2023-05-07T07:15:26;12.60;99.90
49242;DHT22;35079;52.704;13.814;2023-05-07T07:17:52;12.60;99.90
49242;DHT22;35079;52.704;13.814;2023-05-07T07:20:18;12.50;99.90
49242;DHT22;35079;52.704;13.814;2023-05-07T07:22:43;12.90;99.90
49242;DHT22;35079;52.704;13.814;2023-05-07T07:25:09;13.10;99.90
49242;DHT22;35079;52.704;13.814;2023-05-07T07:27:36;12.90;99.90
49242;DHT22;35079;52.704;13.814;2023-05-07T07:30:02;13.00;99.90
49242;DHT22;35079;52.704;13.814;2023-05-07T07:32:28;13.10;99.90
49242;DHT22;35079;52.704;13.814;2023-05-07T07:34:53;13.30;99.90
49242;DHT22;35079;52.704;13.814;2023-05-07T07:37:19;13.50;99.90
49242;DHT22;35079;52.704;13.814;2023-05-07T07:39:44;13.50;99.90
49242;DHT22;35079;52.704;13.814;2023-05-07T07:42:10;13.20;99.90
49242;DHT22;35079;52.704;13.814;2023-05-07T07:44:36;13.00;99.90
49242;DHT22;35079;52.704;13.814;2023-05-07T07:47:01;13.20;99.90
49242;DHT22;35079;52.704;13.814;2023-05-07T07:49:27;13.00;99.90
49242;DHT22;35079;52.704;13.814;2023-05-07T07:51:52;12.70;99.90
49242;DHT22;35079;52.704;13.814;2023-05-07T07:54:18;13.10;99.90
49242;DHT22;35079;52.704;13.814;2023-05-07T07:56:44;13.50;99.90
49242;DHT22;35079;52.704;13.814;2023-05-07T07:59:10;13.20;99.90
49242;DHT22;35079;52.704;13.814;2023-05-07T08:01:35;13.10;99.90
49242;DHT22;35079;52.704;13.814;2023-05-07T08:04:01;13.20;99.90
49242;DHT22;35079;52.704;13.814;2023-05-07T08:06:28;13.30;99.90
49242;DHT22;35079;52.704;13.814;2023-05-07T08:08:54;13.30;99.90
49242;DHT22;35079;52.704;13.814;2023-05-07T08:11:20;13.10;99.90
49242;DHT22;35079;52.704;13.814;2023-05-07T08:13:47;13.10;99.90
49242;DHT22;35079;52.704;13.814;2023-05-07T08:16:13;12.80;99.90
49242;DHT22;35079;52.704;13.814;2023-05-07T08:18:38;13.30;99.90
49242;DHT22;35079;52.704;13.814;2023-05-07T08:21:04;13.70;99.90
49242;DHT22;35079;52.704;13.814;2023-05-07T08:23:30;14.00;99.90
49242;DHT22;35079;52.704;13.814;2023-05-07T08:25:55;14.00;99.90
49242;DHT22;35079;52.704;13.814;2023-05-07T08:28:21;13.70;99.90
49242;DHT22;35079;52.704;13.814;2023-05-07T08:30:47;13.70;99.90
49242;DHT22;35079;52.704;13.814;2023-05-07T08:33:13;13.60;99.90
49242;DHT22;35079;52.704;13.814;2023-05-07T08:35:38;13.80;99.90
49242;DHT22;35079;52.704;13.814;2023-05-07T08:38:04;13.90;99.90
49242;DHT22;35079;52.704;13.814;2023-05-07T08:40:36;14.00;99.90
49242;DHT22;35079;52.704;13.814;2023-05-07T08:43:02;14.90;99.90
49242;DHT22;35079;52.704;13.814;2023-05-07T08:45:30;15.60;99.90
49242;DHT22;35079;52.704;13.814;2023-05-07T08:47:59;15.90;99.90
49242;DHT22;35079;52.704;13.814;2023-05-07T08:50:25;16.50;99.90
49242;DHT22;35079;52.704;13.814;2023-05-07T08:52:51;17.00;98.20
49242;DHT22;35079;52.704;13.814;2023-05-07T08:55:17;15.70;99.40
49242;DHT22;35079;52.704;13.814;2023-05-07T08:57:43;15.40;99.90
49242;DHT22;35079;52.704;13.814;2023-05-07T09:00:09;15.90;99.90
49242;DHT22;35079;52.704;13.814;2023-05-07T09:02:36;16.60;99.90
49242;DHT22;35079;52.704;13.814;2023-05-07T09:05:02;16.80;99.90
49242;DHT22;35079;52.704;13.814;2023-05-07T09:07:28;16.30;99.20
49242;DHT22;35079;52.704;13.814;2023-05-07T09:09:55;16.10;99.60
49242;DHT22;35079;52.704;13.814;2023-05-07T09:12:21;16.70;99.40
49242;DHT22;35079;52.704;13.814;2023-05-07T09:14:47;17.20;97.40
49242;DHT22;35079;52.704;13.814;2023-05-07T09:17:13;16.90;97.20
49242;DHT22;35079;52.704;13.814;2023-05-07T09:19:39;16.40;98.20
49242;DHT22;35079;52.704;13.814;2023-05-07T09:22:05;17.30;97.50
49242;DHT22;35079;52.704;13.814;2023-05-07T09:24:32;18.30;95.60
49242;DHT22;35079;52.704;13.814;2023-05-07T09:27:03;18.40;92.00
49242;DHT22;35079;52.704;13.814;2023-05-07T09:29:31;17.80;93.20
49242;DHT22;35079;52.704;13.814;2023-05-07T09:32:06;16.30;94.60
49242;DHT22;35079;52.704;13.814;2023-05-07T09:34:32;16.10;97.60
49242;DHT22;35079;52.704;13.814;2023-05-07T09:37:05;15.90;98.20
49242;DHT22;35079;52.704;13.814;2023-05-07T09:39:47;16.10;99.90
49242;DHT22;35079;52.704;13.814;2023-05-07T09:42:13;16.60;96.90
49242;DHT22;35079;52.704;13.814;2023-05-07T09:44:41;16.60;98.10
49242;DHT22;35079;52.704;13.814;2023-05-07T09:47:08;17.20;95.00
49242;DHT22;35079;52.704;13.814;2023-05-07T09:49:36;17.30;98.30
49242;DHT22;35079;52.704;13.814;2023-05-07T09:52:04;17.50;96.40
49242;DHT22;35079;52.704;13.814;2023-05-07T09:54:36;17.20;94.60
49242;DHT22;35079;52.704;13.814;2023-05-07T09:57:05;16.40;95.70
49242;DHT22;35079;52.704;13.814;2023-05-07T09:59:32;16.10;96.60
49242;DHT22;35079;52.704;13.814;2023-05-07T10:01:59;16.90;95.20
49242;DHT22;35079;52.704;13.814;2023-05-07T10:04:28;17.60;94.00
49242;DHT22;35079;52.704;13.814;2023-05-07T10:06:54;17.80;92.90
49242;DHT22;35079;52.704;13.814;2023-05-07T10:09:21;17.40;94.10
49242;DHT22;35079;52.704;13.814;2023-05-07T10:11:49;16.20;94.00
49242;DHT22;35079;52.704;13.814;2023-05-07T10:14:15;16.30;95.70
49242;DHT22;35079;52.704;13.814;2023-05-07T10:16:41;16.00;96.60
49242;DHT22;35079;52.704;13.814;2023-05-07T10:19:08;15.80;95.40
49242;DHT22;35079;52.704;13.814;2023-05-07T10:21:40;16.50;95.40
49242;DHT22;35079;52.704;13.814;2023-05-07T10:24:16;17.10;95.10
49242;DHT22;35079;52.704;13.814;2023-05-07T10:26:47;18.20;95.50
49242;DHT22;35079;52.704;13.814;2023-05-07T10:29:39;19.70;91.00
49242;DHT22;35079;52.704;13.814;2023-05-07T10:35:19;20.20;87.20
49242;DHT22;35079;52.704;13.814;2023-05-07T10:37:47;19.00;85.60
49242;DHT22;35079;52.704;13.814;2023-05-07T10:40:13;18.50;91.60
49242;DHT22;35079;52.704;13.814;2023-05-07T10:42:53;18.30;88.20
49242;DHT22;35079;52.704;13.814;2023-05-07T10:45:20;18.50;89.10
49242;DHT22;35079;52.704;13.814;2023-05-07T10:50:40;18.50;88.70
49242;DHT22;35079;52.704;13.814;2023-05-07T10:55:48;17.80;90.90
49242;DHT22;35079;52.704;13.814;2023-05-07T10:58:27;19.10;84.60
49242;DHT22;35079;52.704;13.814;2023-05-07T11:01:01;19.70;82.00
49242;DHT22;35079;52.704;13.814;2023-05-07T11:03:27;20.00;84.20
49242;DHT22;35079;52.704;13.814;2023-05-07T11:06:13;20.90;82.10
49242;DHT22;35079;52.704;13.814;2023-05-07T11:11:17;22.10;68.50
49242;DHT22;35079;52.704;13.814;2023-05-07T11:13:49;20.20;69.70
49242;DHT22;35079;52.704;13.814;2023-05-07T11:16:23;18.60;77.00
49242;DHT22;35079;52.704;13.814;2023-05-07T11:18:54;17.80;81.40
49242;DHT22;35079;52.704;13.814;2023-05-07T11:23:59;18.70;80.50
49242;DHT22;35079;52.704;13.814;2023-05-07T11:26:27;20.10;75.60
49242;DHT22;35079;52.704;13.814;2023-05-07T11:28:53;19.90;73.20
49242;DHT22;35079;52.704;13.814;2023-05-07T11:31:27;20.50;76.30
49242;DHT22;35079;52.704;13.814;2023-05-07T11:33:54;20.20;71.30
49242;DHT22;35079;52.704;13.814;2023-05-07T11:36:22;19.30;74.10
49242;DHT22;35079;52.704;13.814;2023-05-07T11:38:47;18.90;80.50
49242;DHT22;35079;52.704;13.814;2023-05-07T11:41:13;20.20;74.50
49242;DHT22;35079;52.704;13.814;2023-05-07T11:43:57;21.30;71.40
49242;DHT22;35079;52.704;13.814;2023-05-07T11:46:23;20.40;70.10
49242;DHT22;35079;52.704;13.814;2023-05-07T11:48:48;20.10;72.60
49242;DHT22;35079;52.704;13.814;2023-05-07T11:51:19;19.50;73.90
49242;DHT22;35079;52.704;13.814;2023-05-07T11:53:45;18.70;74.40
49242;DHT22;35079;52.704;13.814;2023-05-07T11:56:12;19.50;77.60
49242;DHT22;35079;52.704;13.814;2023-05-07T11:58:39;19.60;78.00
49242;DHT22;35079;52.704;13.814;2023-05-07T12:01:07;21.40;80.50
49242;DHT22;35079;52.704;13.814;2023-05-07T12:03:33;22.50;71.10
49242;DHT22;35079;52.704;13.814;2023-05-07T12:05:59;22.20;68.60
49242;DHT22;35079;52.704;13.814;2023-05-07T12:08:25;21.60;69.00
49242;DHT22;35079;52.704;13.814;2023-05-07T12:10:51;21.20;69.10
49242;DHT22;35079;52.704;13.814;2023-05-07T12:13:24;20.60;71.70
49242;DHT22;35079;52.704;13.814;2023-05-07T12:15:55;19.80;69.50
49242;DHT22;35079;52.704;13.814;2023-05-07T12:18:22;20.70;71.70
49242;DHT22;35079;52.704;13.814;2023-05-07T12:20:48;20.90;69.30
49242;DHT22;35079;52.704;13.814;2023-05-07T12:23:14;22.00;70.20
49242;DHT22;35079;52.704;13.814;2023-05-07T12:25:41;22.50;67.40
49242;DHT22;35079;52.704;13.814;2023-05-07T12:28:16;22.50;65.00
49242;DHT22;35079;52.704;13.814;2023-05-07T12:30:47;22.60;65.10
49242;DHT22;35079;52.704;13.814;2023-05-07T12:33:17;22.20;63.30
49242;DHT22;35079;52.704;13.814;2023-05-07T12:35:44;22.00;64.10
49242;DHT22;35079;52.704;13.814;2023-05-07T12:38:14;20.80;63.20
49242;DHT22;35079;52.704;13.814;2023-05-07T12:40:45;21.30;62.30
49242;DHT22;35079;52.704;13.814;2023-05-07T12:43:17;20.60;66.90
49242;DHT22;35079;52.704;13.814;2023-05-07T12:45:44;20.60;66.20
49242;DHT22;35079;52.704;13.814;2023-05-07T12:48:10;20.60;65.10
49242;DHT22;35079;52.704;13.814;2023-05-07T12:50:36;19.90;66.80
49242;DHT22;35079;52.704;13.814;2023-05-07T12:53:06;20.10;68.30
49242;DHT22;35079;52.704;13.814;2023-05-07T12:55:44;20.40;66.20
49242;DHT22;35079;52.704;13.814;2023-05-07T12:58:21;20.70;63.30
49242;DHT22;35079;52.704;13.814;2023-05-07T13:00:49;20.90;61.40
49242;DHT22;35079;52.704;13.814;2023-05-07T13:03:23;20.00;62.80
49242;DHT22;35079;52.704;13.814;2023-05-07T13:05:50;19.90;67.70
49242;DHT22;35079;52.704;13.814;2023-05-07T13:08:30;19.20;66.30
49242;DHT22;35079;52.704;13.814;2023-05-07T13:11:00;18.70;69.90
49242;DHT22;35079;52.704;13.814;2023-05-07T13:13:33;18.40;66.80
49242;DHT22;35079;52.704;13.814;2023-05-07T13:16:00;18.80;67.20
49242;DHT22;35079;52.704;13.814;2023-05-07T13:18:26;19.80;65.40
49242;DHT22;35079;52.704;13.814;2023-05-07T13:20:52;20.50;63.90
49242;DHT22;35079;52.704;13.814;2023-05-07T13:23:18;19.90;65.50
49242;DHT22;35079;52.704;13.814;2023-05-07T13:25:44;20.40;66.10
49242;DHT22;35079;52.704;13.814;2023-05-07T13:28:09;21.00;64.90
49242;DHT22;35079;52.704;13.814;2023-05-07T13:30:35;21.20;61.40
49242;DHT22;35079;52.704;13.814;2023-05-07T13:33:01;19.60;63.20
49242;DHT22;35079;52.704;13.814;2023-05-07T13:35:27;18.70;64.70
49242;DHT22;35079;52.704;13.814;2023-05-07T13:37:53;18.20;64.80
49242;DHT22;35079;52.704;13.814;2023-05-07T13:40:20;18.00;69.40
49242;DHT22;35079;52.704;13.814;2023-05-07T13:42:46;18.30;66.30
49242;DHT22;35079;52.704;13.814;2023-05-07T13:45:11;18.50;68.10
49242;DHT22;35079;52.704;13.814;2023-05-07T13:47:42;18.60;64.90
49242;DHT22;35079;52.704;13.814;2023-05-07T13:50:09;18.50;68.00
49242;DHT22;35079;52.704;13.814;2023-05-07T13:52:35;18.20;68.00
49242;DHT22;35079;52.704;13.814;2023-05-07T13:55:01;17.90;68.70
49242;DHT22;35079;52.704;13.814;2023-05-07T13:57:26;18.00;71.10
49242;DHT22;35079;52.704;13.814;2023-05-07T13:59:52;18.70;67.70
49242;DHT22;35079;52.704;13.814;2023-05-07T14:02:17;18.10;70.20
49242;DHT22;35079;52.704;13.814;2023-05-07T14:04:43;17.90;71.00
49242;DHT22;35079;52.704;13.814;2023-05-07T14:07:10;17.60;69.50
49242;DHT22;35079;52.704;13.814;2023-05-07T14:09:35;17.00;72.70
49242;DHT22;35079;52.704;13.814;2023-05-07T14:12:01;17.10;73.30
49242;DHT22;35079;52.704;13.814;2023-05-07T14:14:27;17.40;70.70
49242;DHT22;35079;52.704;13.814;2023-05-07T14:16:52;17.20;71.60
49242;DHT22;35079;52.704;13.814;2023-05-07T14:19:18;17.30;71.40
49242;DHT22;35079;52.704;13.814;2023-05-07T14:21:43;17.00;71.00
49242;DHT22;35079;52.704;13.814;2023-05-07T14:24:10;16.30;71.80
49242;DHT22;35079;52.704;13.814;2023-05-07T14:26:35;16.30;75.30
49242;DHT22;35079;52.704;13.814;2023-05-07T14:29:01;15.80;74.80
49242;DHT22;35079;52.704;13.814;2023-05-07T14:31:27;16.40;73.70
49242;DHT22;35079;52.704;13.814;2023-05-07T14:33:52;16.70;76.10
49242;DHT22;35079;52.704;13.814;2023-05-07T14:36:19;18.10;72.80
49242;DHT22;35079;52.704;13.814;2023-05-07T14:38:47;18.60;70.70
49242;DHT22;35079;52.704;13.814;2023-05-07T14:41:12;19.40;65.50
49242;DHT22;35079;52.704;13.814;2023-05-07T14:43:38;18.10;67.50
49242;DHT22;35079;52.704;13.814;2023-05-07T14:46:04;17.90;67.70
49242;DHT22;35079;52.704;13.814;2023-05-07T14:48:29;17.50;70.40
49242;DHT22;35079;52.704;13.814;2023-05-07T14:50:55;16.80;71.10
49242;DHT22;35079;52.704;13.814;2023-05-07T14:53:22;17.00;72.00
49242;DHT22;35079;52.704;13.814;2023-05-07T14:55:48;16.80;70.80
49242;DHT22;35079;52.704;13.814;2023-05-07T14:58:14;17.30;72.40
49242;DHT22;35079;52.704;13.814;2023-05-07T15:00:39;17.20;75.40
49242;DHT22;35079;52.704;13.814;2023-05-07T15:03:07;17.50;73.60
49242;DHT22;35079;52.704;13.814;2023-05-07T15:05:33;17.10;75.20
49242;DHT22;35079;52.704;13.814;2023-05-07T15:07:59;16.90;74.20
49242;DHT22;35079;52.704;13.814;2023-05-07T15:10:25;16.60;76.10
49242;DHT22;35079;52.704;13.814;2023-05-07T15:12:50;16.80;77.00
49242;DHT22;35079;52.704;13.814;2023-05-07T15:15:16;16.60;75.50
49242;DHT22;35079;52.704;13.814;2023-05-07T15:17:41;16.20;76.70
49242;DHT22;35079;52.704;13.814;2023-05-07T15:20:07;16.10;78.30
49242;DHT22;35079;52.704;13.814;2023-05-07T15:22:33;16.10;78.30
49242;DHT22;35079;52.704;13.814;2023-05-07T15:25:01;16.70;77.10
49242;DHT22;35079;52.704;13.814;2023-05-07T15:27:27;16.90;78.00
49242;DHT22;35079;52.704;13.814;2023-05-07T15:29:52;16.50;76.60
49242;DHT22;35079;52.704;13.814;2023-05-07T15:32:18;16.50;76.70
49242;DHT22;35079;52.704;13.814;2023-05-07T15:34:43;16.30;77.90